sensor_id;sensor_type;location;lat;lon;timestamp;P1;durP1;ratioP1;P2;durP2;ratioP2
9698;SDS011;10089;47.876;8.346;2023-02-08T00:02:18;21.93;;;12.20;;
9698;SDS011;10089;47.876;8.346;2023-02-08T00:04:43;17.63;;;11.37;;
9698;SDS011;10089;47.876;8.346;2023-02-08T00:07:09;17.80;;;10.87;;
9698;SDS011;10089;47.876;8.346;2023-02-08T00:09:35;19.53;;;11.50;;
9698;SDS011;10089;47.876;8.346;2023-02-08T00:12:00;18.43;;;11.60;;
9698;SDS011;10089;47.876;8.346;2023-02-08T00:14:26;20.57;;;11.10;;
9698;SDS011;10089;47.876;8.346;2023-02-08T00:16:51;14.80;;;10.43;;
9698;SDS011;10089;47.876;8.346;2023-02-08T00:19:17;18.60;;;10.67;;
9698;SDS011;10089;47.876;8.346;2023-02-08T00:21:43;23.57;;;11.57;;
9698;SDS011;10089;47.876;8.346;2023-02-08T00:24:08;17.10;;;11.27;;
9698;SDS011;10089;47.876;8.346;2023-02-08T00:26:34;18.67;;;11.63;;
9698;SDS011;10089;47.876;8.346;2023-02-08T00:29:00;18.50;;;10.67;;
9698;SDS011;10089;47.876;8.346;2023-02-08T00:31:25;19.77;;;11.97;;
9698;SDS011;10089;47.876;8.346;2023-02-08T00:33:51;22.87;;;12.73;;
9698;SDS011;10089;47.876;8.346;2023-02-08T00:36:17;18.60;;;11.77;;
9698;SDS011;10089;47.876;8.346;2023-02-08T00:38:42;16.57;;;11.13;;
9698;SDS011;10089;47.876;8.346;2023-02-08T00:41:08;18.73;;;12.30;;
9698;SDS011;10089;47.876;8.346;2023-02-08T00:43:34;18.17;;;10.73;;
9698;SDS011;10089;47.876;8.346;2023-02-08T00:46:00;20.80;;;11.63;;
9698;SDS011;10089;47.876;8.346;2023-02-08T00:48:26;21.80;;;11.20;;
9698;SDS011;10089;47.876;8.346;2023-02-08T00:51:06;18.83;;;11.20;;
9698;SDS011;10089;47.876;8.346;2023-02-08T00:53:35;22.53;;;11.93;;
9698;SDS011;10089;47.876;8.346;2023-02-08T00:56:02;15.57;;;10.37;;
9698;SDS011;10089;47.876;8.346;2023-02-08T00:58:28;19.43;;;11.03;;
9698;SDS011;10089;47.876;8.346;2023-02-08T01:00:53;18.20;;;10.83;;
9698;SDS011;10089;47.876;8.346;2023-02-08T01:03:20;19.90;;;11.60;;
9698;SDS011;10089;47.876;8.346;2023-02-08T01:05:46;18.37;;;10.13;;
9698;SDS011;10089;47.876;8.346;2023-02-08T01:08:12;16.60;;;9.80;;
9698;SDS011;10089;47.876;8.346;2023-02-08T01:10:38;18.60;;;9.90;;
9698;SDS011;10089;47.876;8.346;2023-02-08T01:13:03;19.03;;;10.33;;
9698;SDS011;10089;47.876;8.346;2023-02-08T01:15:29;18.37;;;10.17;;
9698;SDS011;10089;47.876;8.346;2023-02-08T01:17:55;14.93;;;9.53;;
9698;SDS011;10089;47.876;8.346;2023-02-08T01:20:21;16.30;;;9.23;;
9698;SDS011;10089;47.876;8.346;2023-02-08T01:22:47;15.10;;;9.67;;
9698;SDS011;10089;47.876;8.346;2023-02-08T01:25:13;19.53;;;9.50;;
9698;SDS011;10089;47.876;8.346;2023-02-08T01:27:39;15.27;;;9.27;;
9698;SDS011;10089;47.876;8.346;2023-02-08T01:30:05;16.53;;;9.50;;
9698;SDS011;10089;47.876;8.346;2023-02-08T01:32:31;18.40;;;9.13;;
9698;SDS011;10089;47.876;8.346;2023-02-08T01:34:57;14.83;;;8.73;;
9698;SDS011;10089;47.876;8.346;2023-02-08T01:37:23;15.03;;;9.20;;
9698;SDS011;10089;47.876;8.346;2023-02-08T01:39:48;14.17;;;9.00;;
9698;SDS011;10089;47.876;8.346;2023-02-08T01:42:15;14.53;;;8.90;;
9698;SDS011;10089;47.876;8.346;2023-02-08T01:47:33;15.90;;;9.60;;
9698;SDS011;10089;47.876;8.346;2023-02-08T01:49:58;16.47;;;8.73;;
9698;SDS011;10089;47.876;8.346;2023-02-08T01:52:25;14.30;;;8.07;;
9698;SDS011;10089;47.876;8.346;2023-02-08T01:54:55;15.07;;;8.93;;
9698;SDS011;10089;47.876;8.346;2023-02-08T01:57:24;23.13;;;11.70;;
9698;SDS011;10089;47.876;8.346;2023-02-08T01:59:54;15.77;;;8.97;;
9698;SDS011;10089;47.876;8.346;2023-02-08T02:02:48;15.17;;;8.97;;
9698;SDS011;10089;47.876;8.346;2023-02-08T02:05:24;13.73;;;8.43;;
9698;SDS011;10089;47.876;8.346;2023-02-08T02:07:54;17.47;;;9.57;;
9698;SDS011;10089;47.876;8.346;2023-02-08T02:10:28;14.13;;;8.13;;
9698;SDS011;10089;47.876;8.346;2023-02-08T02:12:57;13.77;;;8.67;;
9698;SDS011;10089;47.876;8.346;2023-02-08T02:15:28;15.77;;;8.73;;
9698;SDS011;10089;47.876;8.346;2023-02-08T02:17:54;13.53;;;8.53;;
9698;SDS011;10089;47.876;8.346;2023-02-08T02:31:43;14.60;;;8.27;;
9698;SDS011;10089;47.876;8.346;2023-02-08T02:36:51;14.43;;;7.87;;
9698;SDS011;10089;47.876;8.346;2023-02-08T02:51:14;10.63;;;6.90;;
9698;SDS011;10089;47.876;8.346;2023-02-08T02:56:40;14.60;;;7.57;;
9698;SDS011;10089;47.876;8.346;2023-02-08T02:59:09;11.90;;;7.10;;
9698;SDS011;10089;47.876;8.346;2023-02-08T03:01:38;11.50;;;7.17;;
9698;SDS011;10089;47.876;8.346;2023-02-08T03:04:16;15.97;;;7.23;;
9698;SDS011;10089;47.876;8.346;2023-02-08T03:12:07;12.07;;;6.43;;
9698;SDS011;10089;47.876;8.346;2023-02-08T03:17:52;10.90;;;6.63;;
9698;SDS011;10089;47.876;8.346;2023-02-08T03:20:31;12.33;;;6.77;;
9698;SDS011;10089;47.876;8.346;2023-02-08T03:23:06;13.70;;;7.30;;
9698;SDS011;10089;47.876;8.346;2023-02-08T03:25:51;11.57;;;6.70;;
9698;SDS011;10089;47.876;8.346;2023-02-08T03:31:14;11.30;;;7.10;;
9698;SDS011;10089;47.876;8.346;2023-02-08T03:33:59;11.47;;;6.67;;
9698;SDS011;10089;47.876;8.346;2023-02-08T03:36:45;10.63;;;6.70;;
9698;SDS011;10089;47.876;8.346;2023-02-08T03:39:25;11.73;;;6.70;;
9698;SDS011;10089;47.876;8.346;2023-02-08T03:42:00;11.63;;;6.50;;
9698;SDS011;10089;47.876;8.346;2023-02-08T03:44:38;8.73;;;5.77;;
9698;SDS011;10089;47.876;8.346;2023-02-08T03:47:10;11.27;;;6.20;;
9698;SDS011;10089;47.876;8.346;2023-02-08T03:49:41;10.73;;;6.20;;
9698;SDS011;10089;47.876;8.346;2023-02-08T03:52:09;11.37;;;6.17;;
9698;SDS011;10089;47.876;8.346;2023-02-08T03:54:36;8.30;;;5.80;;
9698;SDS011;10089;47.876;8.346;2023-02-08T03:57:20;7.80;;;5.67;;
9698;SDS011;10089;47.876;8.346;2023-02-08T03:59:53;11.83;;;5.60;;
9698;SDS011;10089;47.876;8.346;2023-02-08T04:02:25;10.23;;;5.30;;
9698;SDS011;10089;47.876;8.346;2023-02-08T04:04:53;9.37;;;5.87;;
9698;SDS011;10089;47.876;8.346;2023-02-08T04:07:20;10.87;;;5.77;;
9698;SDS011;10089;47.876;8.346;2023-02-08T04:09:46;9.23;;;5.00;;
9698;SDS011;10089;47.876;8.346;2023-02-08T04:12:12;9.87;;;5.10;;
9698;SDS011;10089;47.876;8.346;2023-02-08T04:14:38;7.97;;;5.40;;
9698;SDS011;10089;47.876;8.346;2023-02-08T04:17:04;7.70;;;5.07;;
9698;SDS011;10089;47.876;8.346;2023-02-08T04:19:30;7.90;;;5.57;;
9698;SDS011;10089;47.876;8.346;2023-02-08T04:21:56;8.37;;;5.23;;
9698;SDS011;10089;47.876;8.346;2023-02-08T04:24:22;9.23;;;5.20;;
9698;SDS011;10089;47.876;8.346;2023-02-08T04:26:47;7.10;;;4.83;;
9698;SDS011;10089;47.876;8.346;2023-02-08T04:29:13;9.23;;;4.97;;
9698;SDS011;10089;47.876;8.346;2023-02-08T04:31:39;8.60;;;5.20;;
9698;SDS011;10089;47.876;8.346;2023-02-08T04:34:04;11.93;;;5.23;;
9698;SDS011;10089;47.876;8.346;2023-02-08T04:36:30;7.70;;;4.60;;
9698;SDS011;10089;47.876;8.346;2023-02-08T04:38:56;8.73;;;5.07;;
9698;SDS011;10089;47.876;8.346;2023-02-08T04:41:22;9.97;;;5.03;;
9698;SDS011;10089;47.876;8.346;2023-02-08T04:43:47;8.90;;;4.87;;
9698;SDS011;10089;47.876;8.346;2023-02-08T04:46:13;9.90;;;5.17;;
9698;SDS011;10089;47.876;8.346;2023-02-08T04:48:39;8.80;;;5.23;;
9698;SDS011;10089;47.876;8.346;2023-02-08T04:51:05;8.60;;;5.27;;
9698;SDS011;10089;47.876;8.346;2023-02-08T04:53:31;8.97;;;4.73;;
9698;SDS011;10089;47.876;8.346;2023-02-08T04:55:56;10.00;;;4.93;;
9698;SDS011;10089;47.876;8.346;2023-02-08T04:58:22;5.90;;;4.00;;
9698;SDS011;10089;47.876;8.346;2023-02-08T05:00:48;9.63;;;4.90;;
9698;SDS011;10089;47.876;8.346;2023-02-08T05:03:14;9.10;;;5.20;;
9698;SDS011;10089;47.876;8.346;2023-02-08T05:05:39;15.20;;;7.60;;
9698;SDS011;10089;47.876;8.346;2023-02-08T05:08:05;8.13;;;4.83;;
9698;SDS011;10089;47.876;8.346;2023-02-08T05:10:31;6.60;;;4.50;;
9698;SDS011;10089;47.876;8.346;2023-02-08T05:12:57;7.67;;;4.83;;
9698;SDS011;10089;47.876;8.346;2023-02-08T05:15:23;6.97;;;4.60;;
9698;SDS011;10089;47.876;8.346;2023-02-08T05:17:48;7.40;;;4.90;;
9698;SDS011;10089;47.876;8.346;2023-02-08T05:20:16;7.60;;;4.73;;
9698;SDS011;10089;47.876;8.346;2023-02-08T05:22:42;6.77;;;4.23;;
9698;SDS011;10089;47.876;8.346;2023-02-08T05:25:09;7.10;;;4.53;;
9698;SDS011;10089;47.876;8.346;2023-02-08T05:27:34;9.40;;;4.77;;
9698;SDS011;10089;47.876;8.346;2023-02-08T05:30:00;9.10;;;4.93;;
9698;SDS011;10089;47.876;8.346;2023-02-08T05:32:27;8.63;;;4.73;;
9698;SDS011;10089;47.876;8.346;2023-02-08T05:34:53;5.90;;;4.33;;
9698;SDS011;10089;47.876;8.346;2023-02-08T05:37:18;11.40;;;4.80;;
9698;SDS011;10089;47.876;8.346;2023-02-08T05:39:44;7.67;;;4.87;;
9698;SDS011;10089;47.876;8.346;2023-02-08T05:42:10;7.93;;;4.93;;
9698;SDS011;10089;47.876;8.346;2023-02-08T05:44:35;8.17;;;4.60;;
9698;SDS011;10089;47.876;8.346;2023-02-08T05:47:01;7.23;;;4.37;;
9698;SDS011;10089;47.876;8.346;2023-02-08T05:49:28;5.77;;;4.47;;
9698;SDS011;10089;47.876;8.346;2023-02-08T05:51:53;6.87;;;4.87;;
9698;SDS011;10089;47.876;8.346;2023-02-08T05:54:19;6.63;;;4.57;;
9698;SDS011;10089;47.876;8.346;2023-02-08T05:56:45;7.43;;;4.07;;
9698;SDS011;10089;47.876;8.346;2023-02-08T05:59:11;6.40;;;4.33;;
9698;SDS011;10089;47.876;8.346;2023-02-08T06:01:37;6.77;;;4.03;;
9698;SDS011;10089;47.876;8.346;2023-02-08T06:04:03;8.83;;;4.93;;
9698;SDS011;10089;47.876;8.346;2023-02-08T06:06:29;6.97;;;4.57;;
9698;SDS011;10089;47.876;8.346;2023-02-08T06:08:54;7.23;;;4.87;;
9698;SDS011;10089;47.876;8.346;2023-02-08T06:11:20;8.67;;;4.90;;
9698;SDS011;10089;47.876;8.346;2023-02-08T06:13:46;6.77;;;4.33;;
9698;SDS011;10089;47.876;8.346;2023-02-08T06:16:12;11.10;;;4.83;;
9698;SDS011;10089;47.876;8.346;2023-02-08T06:18:39;9.17;;;4.37;;
9698;SDS011;10089;47.876;8.346;2023-02-08T06:21:05;6.60;;;4.53;;
9698;SDS011;10089;47.876;8.346;2023-02-08T06:23:31;8.50;;;5.33;;
9698;SDS011;10089;47.876;8.346;2023-02-08T06:25:57;8.07;;;5.43;;
9698;SDS011;10089;47.876;8.346;2023-02-08T06:28:23;8.10;;;4.67;;
9698;SDS011;10089;47.876;8.346;2023-02-08T06:30:49;8.93;;;5.00;;
9698;SDS011;10089;47.876;8.346;2023-02-08T06:33:16;7.90;;;5.00;;
9698;SDS011;10089;47.876;8.346;2023-02-08T06:35:46;9.47;;;4.40;;
9698;SDS011;10089;47.876;8.346;2023-02-08T06:38:15;9.33;;;4.90;;
9698;SDS011;10089;47.876;8.346;2023-02-08T06:40:41;7.03;;;4.37;;
9698;SDS011;10089;47.876;8.346;2023-02-08T06:43:06;9.40;;;5.17;;
9698;SDS011;10089;47.876;8.346;2023-02-08T06:45:32;8.43;;;4.20;;
9698;SDS011;10089;47.876;8.346;2023-02-08T06:47:59;8.33;;;4.87;;
9698;SDS011;10089;47.876;8.346;2023-02-08T06:50:25;7.03;;;4.37;;
9698;SDS011;10089;47.876;8.346;2023-02-08T06:52:50;9.40;;;4.40;;
9698;SDS011;10089;47.876;8.346;2023-02-08T06:55:16;9.27;;;4.80;;
9698;SDS011;10089;47.876;8.346;2023-02-08T06:57:42;8.93;;;4.80;;
9698;SDS011;10089;47.876;8.346;2023-02-08T07:02:37;8.60;;;4.80;;
9698;SDS011;10089;47.876;8.346;2023-02-08T07:05:03;10.07;;;4.97;;
9698;SDS011;10089;47.876;8.346;2023-02-08T07:07:29;7.67;;;4.90;;
9698;SDS011;10089;47.876;8.346;2023-02-08T07:09:55;9.47;;;4.80;;
9698;SDS011;10089;47.876;8.346;2023-02-08T07:12:21;8.33;;;4.40;;
9698;SDS011;10089;47.876;8.346;2023-02-08T07:14:47;13.00;;;5.10;;
9698;SDS011;10089;47.876;8.346;2023-02-08T07:17:13;7.20;;;4.80;;
9698;SDS011;10089;47.876;8.346;2023-02-08T07:19:38;7.87;;;4.53;;
9698;SDS011;10089;47.876;8.346;2023-02-08T07:22:05;8.53;;;4.83;;
9698;SDS011;10089;47.876;8.346;2023-02-08T07:24:34;6.40;;;4.37;;
9698;SDS011;10089;47.876;8.346;2023-02-08T07:27:00;6.53;;;3.83;;
9698;SDS011;10089;47.876;8.346;2023-02-08T07:29:28;6.47;;;4.27;;
9698;SDS011;10089;47.876;8.346;2023-02-08T07:31:54;6.30;;;4.10;;
9698;SDS011;10089;47.876;8.346;2023-02-08T07:34:21;5.07;;;4.10;;
9698;SDS011;10089;47.876;8.346;2023-02-08T07:36:47;9.60;;;4.17;;
9698;SDS011;10089;47.876;8.346;2023-02-08T07:39:13;7.67;;;4.30;;
9698;SDS011;10089;47.876;8.346;2023-02-08T07:41:39;5.93;;;4.37;;
9698;SDS011;10089;47.876;8.346;2023-02-08T07:44:05;7.23;;;4.47;;
9698;SDS011;10089;47.876;8.346;2023-02-08T07:46:31;7.60;;;4.53;;
9698;SDS011;10089;47.876;8.346;2023-02-08T07:48:57;8.03;;;4.77;;
9698;SDS011;10089;47.876;8.346;2023-02-08T07:51:23;9.47;;;4.37;;
9698;SDS011;10089;47.876;8.346;2023-02-08T07:53:49;10.90;;;5.00;;
9698;SDS011;10089;47.876;8.346;2023-02-08T07:58:55;6.63;;;3.70;;
9698;SDS011;10089;47.876;8.346;2023-02-08T08:01:21;7.37;;;4.40;;
9698;SDS011;10089;47.876;8.346;2023-02-08T08:03:46;9.80;;;4.43;;
9698;SDS011;10089;47.876;8.346;2023-02-08T08:06:12;11.87;;;4.80;;
9698;SDS011;10089;47.876;8.346;2023-02-08T08:08:38;8.50;;;4.60;;
9698;SDS011;10089;47.876;8.346;2023-02-08T08:11:04;7.10;;;4.57;;
9698;SDS011;10089;47.876;8.346;2023-02-08T08:13:30;9.03;;;5.00;;
9698;SDS011;10089;47.876;8.346;2023-02-08T08:15:56;10.83;;;5.17;;
9698;SDS011;10089;47.876;8.346;2023-02-08T08:18:22;12.97;;;7.43;;
9698;SDS011;10089;47.876;8.346;2023-02-08T08:20:48;7.57;;;4.70;;
9698;SDS011;10089;47.876;8.346;2023-02-08T08:23:14;9.17;;;5.60;;
9698;SDS011;10089;47.876;8.346;2023-02-08T08:25:40;13.07;;;6.23;;
9698;SDS011;10089;47.876;8.346;2023-02-08T08:28:06;8.63;;;5.63;;
9698;SDS011;10089;47.876;8.346;2023-02-08T08:30:32;7.43;;;4.97;;
9698;SDS011;10089;47.876;8.346;2023-02-08T08:32:58;10.03;;;5.90;;
9698;SDS011;10089;47.876;8.346;2023-02-08T08:35:24;9.37;;;5.60;;
9698;SDS011;10089;47.876;8.346;2023-02-08T08:37:49;7.53;;;4.80;;
9698;SDS011;10089;47.876;8.346;2023-02-08T08:40:15;8.37;;;4.70;;
9698;SDS011;10089;47.876;8.346;2023-02-08T08:42:41;11.97;;;6.37;;
9698;SDS011;10089;47.876;8.346;2023-02-08T08:45:07;8.00;;;5.23;;
9698;SDS011;10089;47.876;8.346;2023-02-08T08:47:33;8.83;;;4.90;;
9698;SDS011;10089;47.876;8.346;2023-02-08T08:49:59;7.60;;;4.80;;
9698;SDS011;10089;47.876;8.346;2023-02-08T08:52:25;10.60;;;5.20;;
9698;SDS011;10089;47.876;8.346;2023-02-08T08:54:50;7.60;;;4.80;;
9698;SDS011;10089;47.876;8.346;2023-02-08T08:57:16;7.37;;;4.70;;
9698;SDS011;10089;47.876;8.346;2023-02-08T08:59:42;9.70;;;6.00;;
9698;SDS011;10089;47.876;8.346;2023-02-08T09:02:11;12.97;;;7.23;;
9698;SDS011;10089;47.876;8.346;2023-02-08T09:04:38;9.70;;;4.33;;
9698;SDS011;10089;47.876;8.346;2023-02-08T09:07:05;8.63;;;5.00;;
9698;SDS011;10089;47.876;8.346;2023-02-08T09:09:32;8.73;;;4.90;;
9698;SDS011;10089;47.876;8.346;2023-02-08T09:11:58;8.80;;;5.40;;
9698;SDS011;10089;47.876;8.346;2023-02-08T09:14:24;7.27;;;4.67;;
9698;SDS011;10089;47.876;8.346;2023-02-08T09:16:51;8.20;;;4.50;;
9698;SDS011;10089;47.876;8.346;2023-02-08T09:19:17;9.10;;;5.00;;
9698;SDS011;10089;47.876;8.346;2023-02-08T09:21:42;9.13;;;5.20;;
9698;SDS011;10089;47.876;8.346;2023-02-08T09:24:08;6.73;;;4.40;;
9698;SDS011;10089;47.876;8.346;2023-02-08T09:26:37;9.40;;;4.70;;
9698;SDS011;10089;47.876;8.346;2023-02-08T09:29:04;8.93;;;4.83;;
9698;SDS011;10089;47.876;8.346;2023-02-08T09:31:31;6.73;;;4.30;;
9698;SDS011;10089;47.876;8.346;2023-02-08T09:34:00;11.07;;;4.70;;
9698;SDS011;10089;47.876;8.346;2023-02-08T09:36:27;7.73;;;4.73;;
9698;SDS011;10089;47.876;8.346;2023-02-08T09:38:57;7.63;;;4.63;;
9698;SDS011;10089;47.876;8.346;2023-02-08T09:44:37;10.17;;;4.60;;
9698;SDS011;10089;47.876;8.346;2023-02-08T09:47:37;6.73;;;4.83;;
9698;SDS011;10089;47.876;8.346;2023-02-08T09:50:13;6.97;;;4.40;;
9698;SDS011;10089;47.876;8.346;2023-02-08T09:52:46;9.80;;;5.93;;
9698;SDS011;10089;47.876;8.346;2023-02-08T09:55:36;7.07;;;4.80;;
9698;SDS011;10089;47.876;8.346;2023-02-08T09:58:16;8.50;;;5.23;;
9698;SDS011;10089;47.876;8.346;2023-02-08T10:01:09;7.97;;;4.50;;
9698;SDS011;10089;47.876;8.346;2023-02-08T10:06:43;7.10;;;4.82;;
9698;SDS011;10089;47.876;8.346;2023-02-08T10:09:13;6.93;;;4.80;;
9698;SDS011;10089;47.876;8.346;2023-02-08T10:34:51;10.73;;;5.10;;
9698;SDS011;10089;47.876;8.346;2023-02-08T10:37:31;16.83;;;8.18;;
9698;SDS011;10089;47.876;8.346;2023-02-08T10:42:46;10.25;;;4.70;;
9698;SDS011;10089;47.876;8.346;2023-02-08T10:45:24;6.20;;;4.75;;
9698;SDS011;10089;47.876;8.346;2023-02-08T10:48:02;7.83;;;4.87;;
9698;SDS011;10089;47.876;8.346;2023-02-08T10:50:35;8.63;;;4.27;;
9698;SDS011;10089;47.876;8.346;2023-02-08T10:53:03;12.13;;;4.50;;
9698;SDS011;10089;47.876;8.346;2023-02-08T10:55:30;7.37;;;4.63;;
9698;SDS011;10089;47.876;8.346;2023-02-08T10:57:58;9.10;;;4.50;;
9698;SDS011;10089;47.876;8.346;2023-02-08T11:00:27;8.03;;;4.57;;
9698;SDS011;10089;47.876;8.346;2023-02-08T11:03:01;6.53;;;4.30;;
9698;SDS011;10089;47.876;8.346;2023-02-08T11:05:39;12.93;;;6.77;;
9698;SDS011;10089;47.876;8.346;2023-02-08T11:08:13;7.70;;;4.90;;
9698;SDS011;10089;47.876;8.346;2023-02-08T11:10:42;7.90;;;4.77;;
9698;SDS011;10089;47.876;8.346;2023-02-08T11:13:42;7.20;;;5.10;;
9698;SDS011;10089;47.876;8.346;2023-02-08T11:16:20;6.83;;;4.20;;
9698;SDS011;10089;47.876;8.346;2023-02-08T11:18:48;7.97;;;3.90;;
9698;SDS011;10089;47.876;8.346;2023-02-08T11:21:36;7.37;;;3.97;;
9698;SDS011;10089;47.876;8.346;2023-02-08T11:26:51;6.57;;;3.80;;
9698;SDS011;10089;47.876;8.346;2023-02-08T11:29:24;7.07;;;3.80;;
9698;SDS011;10089;47.876;8.346;2023-02-08T11:34:33;4.97;;;3.60;;
9698;SDS011;10089;47.876;8.346;2023-02-08T11:37:12;5.67;;;3.37;;
9698;SDS011;10089;47.876;8.346;2023-02-08T11:39:56;7.53;;;3.73;;
9698;SDS011;10089;47.876;8.346;2023-02-08T11:42:24;5.23;;;3.50;;
9698;SDS011;10089;47.876;8.346;2023-02-08T11:44:52;6.57;;;4.47;;
9698;SDS011;10089;47.876;8.346;2023-02-08T11:47:26;8.70;;;4.50;;
9698;SDS011;10089;47.876;8.346;2023-02-08T11:50:01;7.57;;;4.28;;
9698;SDS011;10089;47.876;8.346;2023-02-08T11:52:37;7.30;;;4.80;;
9698;SDS011;10089;47.876;8.346;2023-02-08T11:55:18;6.50;;;4.00;;
9698;SDS011;10089;47.876;8.346;2023-02-08T12:00:30;5.23;;;3.80;;
9698;SDS011;10089;47.876;8.346;2023-02-08T12:03:13;5.83;;;3.97;;
9698;SDS011;10089;47.876;8.346;2023-02-08T12:08:41;5.17;;;3.33;;
9698;SDS011;10089;47.876;8.346;2023-02-08T12:16:54;6.20;;;4.07;;
9698;SDS011;10089;47.876;8.346;2023-02-08T12:19:47;6.83;;;4.00;;
9698;SDS011;10089;47.876;8.346;2023-02-08T12:22:37;5.97;;;3.60;;
9698;SDS011;10089;47.876;8.346;2023-02-08T12:30:33;6.87;;;4.17;;
9698;SDS011;10089;47.876;8.346;2023-02-08T12:40:15;9.20;;;4.50;;
9698;SDS011;10089;47.876;8.346;2023-02-08T12:54:13;8.02;;;4.60;;
9698;SDS011;10089;47.876;8.346;2023-02-08T12:56:48;6.80;;;3.97;;
9698;SDS011;10089;47.876;8.346;2023-02-08T12:59:25;7.17;;;4.20;;
9698;SDS011;10089;47.876;8.346;2023-02-08T13:02:16;7.30;;;4.53;;
9698;SDS011;10089;47.876;8.346;2023-02-08T13:05:22;8.43;;;4.30;;
9698;SDS011;10089;47.876;8.346;2023-02-08T13:07:57;8.23;;;4.67;;
9698;SDS011;10089;47.876;8.346;2023-02-08T13:10:45;6.82;;;4.47;;
9698;SDS011;10089;47.876;8.346;2023-02-08T13:13:25;6.97;;;4.43;;
9698;SDS011;10089;47.876;8.346;2023-02-08T13:16:06;13.17;;;7.83;;
9698;SDS011;10089;47.876;8.346;2023-02-08T13:18:42;7.00;;;4.37;;
9698;SDS011;10089;47.876;8.346;2023-02-08T13:21:23;6.80;;;4.57;;
9698;SDS011;10089;47.876;8.346;2023-02-08T13:23:54;6.80;;;4.13;;
9698;SDS011;10089;47.876;8.346;2023-02-08T13:26:26;9.97;;;4.60;;
9698;SDS011;10089;47.876;8.346;2023-02-08T13:28:56;8.27;;;4.63;;
9698;SDS011;10089;47.876;8.346;2023-02-08T13:31:24;9.13;;;5.33;;
9698;SDS011;10089;47.876;8.346;2023-02-08T13:33:55;8.43;;;5.70;;
9698;SDS011;10089;47.876;8.346;2023-02-08T13:36:33;11.27;;;5.83;;
9698;SDS011;10089;47.876;8.346;2023-02-08T13:39:21;9.47;;;5.77;;
9698;SDS011;10089;47.876;8.346;2023-02-08T13:41:57;11.27;;;4.70;;
9698;SDS011;10089;47.876;8.346;2023-02-08T13:44:34;8.37;;;5.00;;
9698;SDS011;10089;47.876;8.346;2023-02-08T13:47:03;9.27;;;5.17;;
9698;SDS011;10089;47.876;8.346;2023-02-08T13:52:07;9.67;;;5.93;;
9698;SDS011;10089;47.876;8.346;2023-02-08T13:55:37;15.83;;;6.73;;
9698;SDS011;10089;47.876;8.346;2023-02-08T14:03:26;10.43;;;6.57;;
9698;SDS011;10089;47.876;8.346;2023-02-08T14:14:13;9.77;;;6.07;;
9698;SDS011;10089;47.876;8.346;2023-02-08T14:19:29;9.00;;;6.30;;
9698;SDS011;10089;47.876;8.346;2023-02-08T14:22:04;8.30;;;5.43;;
9698;SDS011;10089;47.876;8.346;2023-02-08T14:24:33;10.27;;;5.73;;
9698;SDS011;10089;47.876;8.346;2023-02-08T14:27:16;9.37;;;5.57;;
9698;SDS011;10089;47.876;8.346;2023-02-08T14:32:47;8.33;;;5.50;;
9698;SDS011;10089;47.876;8.346;2023-02-08T14:35:20;8.47;;;5.97;;
9698;SDS011;10089;47.876;8.346;2023-02-08T14:37:49;9.60;;;6.23;;
9698;SDS011;10089;47.876;8.346;2023-02-08T14:40:48;9.30;;;5.57;;
9698;SDS011;10089;47.876;8.346;2023-02-08T14:49:13;11.13;;;6.13;;
9698;SDS011;10089;47.876;8.346;2023-02-08T14:51:43;11.87;;;6.03;;
9698;SDS011;10089;47.876;8.346;2023-02-08T14:54:31;10.03;;;6.17;;
9698;SDS011;10089;47.876;8.346;2023-02-08T14:57:04;13.73;;;7.60;;
9698;SDS011;10089;47.876;8.346;2023-02-08T14:59:39;9.73;;;5.63;;
9698;SDS011;10089;47.876;8.346;2023-02-08T15:02:10;9.47;;;6.13;;
9698;SDS011;10089;47.876;8.346;2023-02-08T15:04:43;10.23;;;5.93;;
9698;SDS011;10089;47.876;8.346;2023-02-08T15:09:42;36.43;;;16.93;;
9698;SDS011;10089;47.876;8.346;2023-02-08T15:14:52;10.40;;;6.27;;
9698;SDS011;10089;47.876;8.346;2023-02-08T15:17:28;11.37;;;6.03;;
9698;SDS011;10089;47.876;8.346;2023-02-08T15:19:55;11.43;;;6.80;;
9698;SDS011;10089;47.876;8.346;2023-02-08T15:24:51;9.47;;;6.20;;
9698;SDS011;10089;47.876;8.346;2023-02-08T15:27:20;10.83;;;7.33;;
9698;SDS011;10089;47.876;8.346;2023-02-08T15:29:52;10.90;;;7.03;;
9698;SDS011;10089;47.876;8.346;2023-02-08T15:32:19;14.10;;;7.07;;
9698;SDS011;10089;47.876;8.346;2023-02-08T15:34:57;12.73;;;7.10;;
9698;SDS011;10089;47.876;8.346;2023-02-08T15:37:26;13.87;;;8.60;;
9698;SDS011;10089;47.876;8.346;2023-02-08T15:39:56;17.80;;;7.87;;
9698;SDS011;10089;47.876;8.346;2023-02-08T15:42:24;11.97;;;7.90;;
9698;SDS011;10089;47.876;8.346;2023-02-08T15:44:53;10.67;;;6.50;;
9698;SDS011;10089;47.876;8.346;2023-02-08T15:47:30;12.30;;;7.20;;
9698;SDS011;10089;47.876;8.346;2023-02-08T15:49:58;10.87;;;7.23;;
9698;SDS011;10089;47.876;8.346;2023-02-08T15:52:32;12.77;;;7.20;;
9698;SDS011;10089;47.876;8.346;2023-02-08T15:55:00;11.27;;;7.10;;
9698;SDS011;10089;47.876;8.346;2023-02-08T16:00:29;15.50;;;9.40;;
9698;SDS011;10089;47.876;8.346;2023-02-08T16:03:03;14.90;;;8.77;;
9698;SDS011;10089;47.876;8.346;2023-02-08T16:05:33;20.40;;;9.13;;
9698;SDS011;10089;47.876;8.346;2023-02-08T16:08:00;13.43;;;8.07;;
9698;SDS011;10089;47.876;8.346;2023-02-08T16:10:29;14.03;;;7.67;;
9698;SDS011;10089;47.876;8.346;2023-02-08T16:12:59;21.10;;;10.33;;
9698;SDS011;10089;47.876;8.346;2023-02-08T16:15:37;18.47;;;10.40;;
9698;SDS011;10089;47.876;8.346;2023-02-08T16:20:58;12.47;;;7.80;;
9698;SDS011;10089;47.876;8.346;2023-02-08T16:23:26;21.93;;;13.67;;
9698;SDS011;10089;47.876;8.346;2023-02-08T16:25:53;17.70;;;8.93;;
9698;SDS011;10089;47.876;8.346;2023-02-08T16:28:25;13.70;;;8.53;;
9698;SDS011;10089;47.876;8.346;2023-02-08T16:30:51;16.67;;;9.50;;
9698;SDS011;10089;47.876;8.346;2023-02-08T16:33:18;17.67;;;9.13;;
9698;SDS011;10089;47.876;8.346;2023-02-08T16:35:44;23.23;;;14.03;;
9698;SDS011;10089;47.876;8.346;2023-02-08T16:38:16;29.17;;;18.50;;
9698;SDS011;10089;47.876;8.346;2023-02-08T16:50:06;11.33;;;7.87;;
9698;SDS011;10089;47.876;8.346;2023-02-08T16:52:34;14.00;;;8.93;;
9698;SDS011;10089;47.876;8.346;2023-02-08T16:55:00;21.33;;;9.10;;
9698;SDS011;10089;47.876;8.346;2023-02-08T16:57:40;15.23;;;9.37;;
9698;SDS011;10089;47.876;8.346;2023-02-08T17:00:33;24.77;;;14.10;;
9698;SDS011;10089;47.876;8.346;2023-02-08T17:02:58;23.33;;;14.03;;
9698;SDS011;10089;47.876;8.346;2023-02-08T17:05:28;17.47;;;10.70;;
9698;SDS011;10089;47.876;8.346;2023-02-08T17:07:56;17.93;;;10.67;;
9698;SDS011;10089;47.876;8.346;2023-02-08T17:10:29;12.63;;;7.93;;
9698;SDS011;10089;47.876;8.346;2023-02-08T17:12:57;15.87;;;8.00;;
9698;SDS011;10089;47.876;8.346;2023-02-08T17:15:24;15.43;;;9.43;;
9698;SDS011;10089;47.876;8.346;2023-02-08T17:20:35;17.17;;;9.00;;
9698;SDS011;10089;47.876;8.346;2023-02-08T17:23:02;19.73;;;9.77;;
9698;SDS011;10089;47.876;8.346;2023-02-08T17:25:29;13.43;;;8.30;;
9698;SDS011;10089;47.876;8.346;2023-02-08T17:27:57;19.17;;;8.63;;
9698;SDS011;10089;47.876;8.346;2023-02-08T17:33:26;13.67;;;8.77;;
9698;SDS011;10089;47.876;8.346;2023-02-08T17:35:53;13.30;;;8.60;;
9698;SDS011;10089;47.876;8.346;2023-02-08T17:38:19;14.67;;;8.87;;
9698;SDS011;10089;47.876;8.346;2023-02-08T17:40:45;16.53;;;9.00;;
9698;SDS011;10089;47.876;8.346;2023-02-08T17:43:12;17.17;;;9.00;;
9698;SDS011;10089;47.876;8.346;2023-02-08T17:45:38;16.17;;;9.60;;
9698;SDS011;10089;47.876;8.346;2023-02-08T17:48:06;16.83;;;9.23;;
9698;SDS011;10089;47.876;8.346;2023-02-08T17:50:32;16.33;;;10.03;;
9698;SDS011;10089;47.876;8.346;2023-02-08T17:52:59;14.13;;;9.50;;
9698;SDS011;10089;47.876;8.346;2023-02-08T17:55:25;18.07;;;9.37;;
9698;SDS011;10089;47.876;8.346;2023-02-08T17:57:50;18.13;;;10.63;;
9698;SDS011;10089;47.876;8.346;2023-02-08T18:00:18;19.67;;;10.13;;
9698;SDS011;10089;47.876;8.346;2023-02-08T18:02:48;20.67;;;10.90;;
9698;SDS011;10089;47.876;8.346;2023-02-08T18:10:50;14.67;;;9.83;;
9698;SDS011;10089;47.876;8.346;2023-02-08T18:13:16;18.90;;;10.57;;